Time;durP1;ratioP1;P1;durP2;ratioP2;P2;SDS_P1;SDS_P2;PMS_P1;PMS_P2;Temp;Humidity;BMP_temperature;BMP_pressure;BME280_temperature;BME280_humidity;BME280_pressure;Samples;Min_cycle;Max_cycle;Signal;HPM_P1;HPM_P2
2021/06/29 00:00:53;;;;;;;12.20;7.75;;;20.50;79.30;;;;;;5013870;28;20025;-70
2021/06/29 00:03:18;;;;;;;9.85;6.93;;;20.60;79.30;;;;;;5014250;28;20037;-68
2021/06/29 00:05:49;;;;;;;10.63;7.65;;;20.50;79.30;;;;;;5013858;28;20026;-68
2021/06/29 00:08:14;;;;;;;9.75;7.32;;;20.60;79.20;;;;;;5002527;28;20030;-68
2021/06/29 00:10:41;;;;;;;11.63;7.32;;;20.50;79.10;;;;;;4996363;28;20061;-67
2021/06/29 00:13:07;;;;;;;11.45;7.55;;;20.50;79.40;;;;;;5013882;28;20133;-69
2021/06/29 00:15:33;;;;;;;11.52;7.50;;;20.50;79.30;;;;;;4996069;28;20548;-68
2021/06/29 00:17:58;;;;;;;11.50;7.63;;;20.50;79.40;;;;;;4991907;28;20022;-68
2021/06/29 00:20:25;;;;;;;11.38;7.28;;;20.50;79.30;;;;;;4985772;28;20019;-67
2021/06/29 00:22:51;;;;;;;10.35;7.15;;;20.50;79.30;;;;;;5006080;28;20458;-68
2021/06/29 00:25:17;;;;;;;14.30;8.00;;;20.50;79.50;;;;;;4996345;28;20113;-68
2021/06/29 00:27:45;;;;;;;11.52;7.72;;;20.40;79.30;;;;;;4995953;28;20062;-68
2021/06/29 00:30:12;;;;;;;11.70;7.80;;;20.40;79.40;;;;;;4996040;28;20129;-67
2021/06/29 00:32:37;;;;;;;10.77;7.25;;;20.40;79.30;;;;;;4996016;28;20026;-68
2021/06/29 00:35:04;;;;;;;11.45;7.88;;;20.40;79.40;;;;;;4995951;28;20084;-66
2021/06/29 00:37:30;;;;;;;10.43;7.25;;;20.40;79.40;;;;;;5013458;28;20029;-68
2021/06/29 00:39:56;;;;;;;12.95;7.35;;;20.40;79.50;;;;;;4995739;28;20029;-68
2021/06/29 00:42:21;;;;;;;11.70;7.60;;;20.30;79.40;;;;;;4990568;28;20030;-68
2021/06/29 00:44:48;;;;;;;10.02;7.53;;;20.30;79.40;;;;;;5004160;28;20026;-67
2021/06/29 00:47:14;;;;;;;12.60;7.88;;;20.30;79.50;;;;;;4995817;28;20357;-69
2021/06/29 00:49:40;;;;;;;11.43;7.93;;;20.20;79.60;;;;;;4995913;28;20022;-66
2021/06/29 00:52:15;;;;;;;12.55;8.02;;;20.20;79.70;;;;;;4995587;28;20361;-65
2021/06/29 00:54:41;;;;;;;;;;;20.20;79.90;;;;;;4996260;28;20446;-68
2021/06/29 00:57:09;;;;;;;10.38;6.95;;;20.10;79.50;;;;;;5013005;28;19912;-66
2021/06/29 00:59:37;;;;;;;11.32;6.97;;;20.10;79.90;;;;;;5013256;28;20022;-68
2021/06/29 01:02:03;;;;;;;12.60;7.03;;;20.10;80.20;;;;;;4995570;28;20045;-69
2021/06/29 01:04:28;;;;;;;11.73;6.95;;;20.10;80.20;;;;;;5013018;28;20030;-68
2021/06/29 01:06:54;;;;;;;14.38;8.15;;;20.00;80.20;;;;;;5013334;28;20022;-68
2021/06/29 01:09:20;;;;;;;14.60;7.80;;;20.00;80.20;;;;;;4995356;28;20057;-69
2021/06/29 01:11:46;;;;;;;11.60;7.75;;;20.00;80.30;;;;;;5013613;28;20460;-68
2021/06/29 01:14:15;;;;;;;11.40;7.65;;;20.00;80.50;;;;;;4985270;28;20061;-67
2021/06/29 01:16:42;;;;;;;10.27;7.45;;;19.90;80.60;;;;;;4995828;28;20026;-67
2021/06/29 01:19:10;;;;;;;10.48;7.40;;;19.90;80.70;;;;;;4995524;28;20022;-69
2021/06/29 01:21:39;;;;;;;11.35;7.93;;;19.90;80.70;;;;;;4999039;28;20022;-67
2021/06/29 01:24:14;;;;;;;10.38;7.47;;;19.90;80.80;;;;;;5012779;28;20034;-69
2021/06/29 01:27:12;;;;;;;11.38;7.05;;;19.90;80.90;;;;;;4995490;28;20026;-68
2021/06/29 01:32:15;;;;;;;10.55;7.22;;;19.80;80.80;;;;;;5017140;28;20088;-67
2021/06/29 01:34:41;;;;;;;9.32;7.22;;;19.80;80.90;;;;;;5016630;28;20061;-68
2021/06/29 01:37:06;;;;;;;10.60;7.40;;;19.80;81.00;;;;;;4999459;28;20044;-68
2021/06/29 01:39:32;;;;;;;9.93;7.43;;;19.80;81.00;;;;;;5016762;28;20455;-68
2021/06/29 01:41:58;;;;;;;9.88;7.10;;;19.80;81.20;;;;;;5016433;28;20077;-67
2021/06/29 01:44:27;;;;;;;11.65;7.25;;;19.70;81.10;;;;;;5005215;28;20034;-65
2021/06/29 01:46:55;;;;;;;13.07;7.53;;;19.70;81.10;;;;;;5016434;28;20022;-74
2021/06/29 01:49:25;;;;;;;14.82;7.82;;;19.80;81.10;;;;;;4999083;28;20460;-67
2021/06/29 01:51:52;;;;;;;17.40;7.88;;;19.70;81.20;;;;;;4999244;28;20025;-68
2021/06/29 01:54:18;;;;;;;12.35;8.60;;;19.70;81.30;;;;;;4996295;28;20036;-69
2021/06/29 01:56:45;;;;;;;13.18;7.63;;;19.70;81.40;;;;;;5008388;28;20034;-67
2021/06/29 01:59:13;;;;;;;13.55;7.93;;;19.80;81.40;;;;;;5016217;28;20490;-67
2021/06/29 02:01:40;;;;;;;11.52;7.43;;;19.70;81.30;;;;;;4998673;28;20079;-68
2021/06/29 02:04:06;;;;;;;11.68;7.90;;;19.70;81.30;;;;;;4998511;28;20117;-68
2021/06/29 02:06:32;;;;;;;11.95;7.63;;;19.80;81.20;;;;;;4998854;28;20047;-69
2021/06/29 02:08:58;;;;;;;10.10;7.60;;;19.80;81.00;;;;;;5016031;28;20452;-68
2021/06/29 02:11:24;;;;;;;10.65;6.70;;;19.80;80.90;;;;;;5016299;28;20049;-68
2021/06/29 02:13:50;;;;;;;10.13;7.28;;;19.90;81.00;;;;;;4999759;28;20066;-68
2021/06/29 02:16:15;;;;;;;10.40;7.55;;;19.90;80.80;;;;;;4998126;28;20077;-68
2021/06/29 02:18:41;;;;;;;10.93;7.60;;;19.90;80.70;;;;;;5016031;28;20473;-67
2021/06/29 02:21:08;;;;;;;11.48;7.60;;;19.90;80.50;;;;;;5016390;28;20018;-67
2021/06/29 02:23:34;;;;;;;9.65;7.28;;;20.00;80.30;;;;;;5016014;28;20030;-67
2021/06/29 02:26:00;;;;;;;9.75;7.40;;;20.00;80.20;;;;;;5015641;28;20022;-67
2021/06/29 02:28:26;;;;;;;11.95;7.72;;;20.00;80.10;;;;;;5015715;28;20083;-68
2021/06/29 02:30:52;;;;;;;11.52;7.85;;;20.10;80.00;;;;;;5015319;28;20113;-68
2021/06/29 02:33:18;;;;;;;10.93;7.72;;;20.10;79.80;;;;;;4998291;28;20133;-68
2021/06/29 02:35:44;;;;;;;10.85;7.15;;;20.20;79.60;;;;;;5015393;28;20042;-67
2021/06/29 02:38:09;;;;;;;10.95;7.75;;;20.20;79.50;;;;;;4997758;28;20030;-68
2021/06/29 02:40:35;;;;;;;14.50;8.52;;;20.30;79.40;;;;;;5015460;28;20091;-68
2021/06/29 02:43:01;;;;;;;9.95;7.28;;;20.40;79.20;;;;;;5010181;28;20036;-69
2021/06/29 02:45:27;;;;;;;13.68;7.50;;;20.50;79.10;;;;;;5015599;28;20021;-68
2021/06/29 02:47:56;;;;;;;14.75;8.23;;;20.50;78.90;;;;;;4998038;28;20033;-67
2021/06/29 02:50:22;;;;;;;13.70;8.02;;;20.60;78.60;;;;;;5014611;28;20391;-66
2021/06/29 02:52:48;;;;;;;11.32;7.85;;;20.60;78.50;;;;;;5009052;28;20029;-68
2021/06/29 02:55:16;;;;;;;13.23;7.60;;;20.70;78.30;;;;;;4998080;28;20066;-68
2021/06/29 02:57:43;;;;;;;13.88;8.38;;;20.90;78.20;;;;;;5015267;28;20026;-68
2021/06/29 03:00:15;;;;;;;14.43;8.38;;;21.00;77.80;;;;;;5014841;28;20024;-68
2021/06/29 03:02:41;;;;;;;17.95;8.20;;;21.20;77.80;;;;;;4997741;28;20124;-67
2021/06/29 03:05:08;;;;;;;12.07;7.57;;;21.60;77.80;;;;;;4997367;28;20112;-68
2021/06/29 03:07:33;;;;;;;14.75;7.40;;;22.00;77.00;;;;;;5006215;28;20065;-67
2021/06/29 03:09:59;;;;;;;12.68;6.60;;;22.40;76.10;;;;;;4991438;28;20464;-71
2021/06/29 03:12:25;;;;;;;10.23;6.05;;;22.70;75.10;;;;;;5011651;28;20022;-69
2021/06/29 03:14:56;;;;;;;13.13;7.93;;;23.10;73.80;;;;;;5008739;28;20050;-66
2021/06/29 03:17:22;;;;;;;9.68;6.28;;;23.40;72.50;;;;;;5014944;28;20026;-67
2021/06/29 03:19:47;;;;;;;11.35;7.60;;;23.50;71.00;;;;;;5015070;28;20030;-67
2021/06/29 03:22:13;;;;;;;9.32;5.75;;;23.60;70.60;;;;;;5014344;28;20459;-68
2021/06/29 03:24:39;;;;;;;12.38;6.32;;;23.90;70.50;;;;;;5014890;28;20384;-69
2021/06/29 03:27:05;;;;;;;9.63;5.97;;;24.20;69.70;;;;;;4996891;28;20029;-66
2021/06/29 03:29:31;;;;;;;9.93;6.10;;;24.50;68.60;;;;;;5014778;28;20040;-72
2021/06/29 03:31:57;;;;;;;10.02;5.97;;;24.60;67.50;;;;;;5014868;28;20022;-72
2021/06/29 03:34:22;;;;;;;10.27;6.18;;;24.50;67.10;;;;;;5014423;28;20432;-68
2021/06/29 03:36:49;;;;;;;10.45;6.18;;;24.50;66.90;;;;;;5000376;28;20026;-68
2021/06/29 03:39:14;;;;;;;8.48;6.25;;;24.40;66.70;;;;;;5001206;28;20072;-70
2021/06/29 03:41:40;;;;;;;9.20;6.18;;;24.30;66.80;;;;;;5011593;28;20448;-73
2021/06/29 03:44:06;;;;;;;9.75;5.85;;;24.20;66.90;;;;;;4973399;28;20034;-69
2021/06/29 03:46:32;;;;;;;11.50;7.07;;;24.20;67.10;;;;;;4976798;28;20114;-68
2021/06/29 03:48:58;;;;;;;12.85;5.90;;;24.20;67.20;;;;;;4995195;28;20057;-71
2021/06/29 03:51:24;;;;;;;11.15;6.50;;;24.00;67.40;;;;;;4983031;28;20528;-69
2021/06/29 03:53:49;;;;;;;10.82;6.13;;;24.00;68.10;;;;;;4996856;28;20541;-71
2021/06/29 03:56:24;;;;;;;8.38;6.10;;;24.30;68.20;;;;;;4958190;28;20027;-68
2021/06/29 03:59:16;;;;;;;10.27;6.20;;;24.60;67.90;;;;;;4979456;28;20089;-72
2021/06/29 04:01:42;;;;;;;12.35;5.45;;;25.10;67.40;;;;;;4991107;28;20115;-72
2021/06/29 04:04:08;;;;;;;8.93;5.70;;;25.40;66.60;;;;;;4987416;28;20460;-68
2021/06/29 04:06:36;;;;;;;9.07;5.80;;;25.90;65.70;;;;;;4992766;28;20030;-69
2021/06/29 04:09:05;;;;;;;8.05;5.82;;;26.30;64.90;;;;;;5004060;28;20369;-69
2021/06/29 04:11:31;;;;;;;7.28;5.30;;;26.70;64.30;;;;;;5007312;28;20500;-65
2021/06/29 04:13:57;;;;;;;7.25;5.28;;;27.10;63.50;;;;;;4991511;28;20112;-70
2021/06/29 04:16:23;;;;;;;8.68;5.28;;;27.50;62.30;;;;;;4995767;28;20033;-70
2021/06/29 04:18:50;;;;;;;9.00;5.40;;;27.60;61.40;;;;;;5013521;28;20018;-68
2021/06/29 04:21:16;;;;;;;9.50;5.43;;;27.60;61.00;;;;;;4996116;28;20030;-68
2021/06/29 04:23:44;;;;;;;9.57;5.20;;;27.80;60.90;;;;;;5013734;28;20040;-71
2021/06/29 04:26:12;;;;;;;10.63;5.88;;;27.80;60.40;;;;;;5013788;28;20049;-71
2021/06/29 04:28:37;;;;;;;10.50;5.63;;;27.80;60.10;;;;;;5013619;28;20030;-66
2021/06/29 04:31:03;;;;;;;7.70;5.20;;;27.90;61.00;;;;;;5013865;28;20026;-70
2021/06/29 04:33:29;;;;;;;9.63;5.53;;;28.20;60.20;;;;;;5013496;28;20061;-69
2021/06/29 04:35:55;;;;;;;9.23;5.15;;;28.50;59.80;;;;;;5013172;28;20062;-68
2021/06/29 04:38:20;;;;;;;8.55;5.72;;;28.60;59.50;;;;;;4995709;28;20025;-68
2021/06/29 04:40:46;;;;;;;10.27;5.07;;;28.80;59.30;;;;;;5013234;28;20025;-69
2021/06/29 04:43:12;;;;;;;16.23;5.90;;;29.10;58.90;;;;;;5007154;28;20040;-69
2021/06/29 04:45:38;;;;;;;8.57;5.13;;;29.40;58.30;;;;;;5013641;28;20104;-69
2021/06/29 04:48:04;;;;;;;7.20;5.30;;;29.70;58.00;;;;;;5005410;28;20070;-71
2021/06/29 04:50:29;;;;;;;12.68;4.88;;;30.10;57.10;;;;;;4982211;28;20107;-69
2021/06/29 04:52:55;;;;;;;8.18;4.78;;;30.50;56.70;;;;;;5012978;28;20460;-69
2021/06/29 04:55:21;;;;;;;9.48;5.35;;;30.90;55.50;;;;;;4996041;28;20400;-69
2021/06/29 04:57:47;;;;;;;14.98;6.88;;;31.00;54.90;;;;;;5013224;28;20022;-67
2021/06/29 05:00:16;;;;;;;10.70;5.25;;;31.20;54.70;;;;;;4995506;28;20026;-69
2021/06/29 05:02:42;;;;;;;6.45;4.40;;;31.30;54.50;;;;;;5012016;28;20026;-69
2021/06/29 05:05:09;;;;;;;7.00;4.57;;;31.40;53.80;;;;;;4999857;28;20029;-69
2021/06/29 05:07:40;;;;;;;9.48;4.40;;;31.50;53.60;;;;;;4972265;28;20049;-64
2021/06/29 05:10:10;;;;;;;7.93;4.50;;;31.70;52.90;;;;;;4978201;28;20459;-73
2021/06/29 05:12:37;;;;;;;6.15;4.43;;;31.90;52.60;;;;;;4979118;28;20044;-67
2021/06/29 05:15:05;;;;;;;8.70;4.57;;;32.20;52.30;;;;;;4997222;28;20074;-68
2021/06/29 05:17:31;;;;;;;8.23;5.10;;;32.10;51.80;;;;;;4994017;28;20113;-68
2021/06/29 05:19:57;;;;;;;7.22;4.93;;;31.90;52.10;;;;;;5002775;28;20113;-69
2021/06/29 05:22:23;;;;;;;8.85;4.80;;;31.60;52.50;;;;;;4992239;28;20490;-68
2021/06/29 05:24:49;;;;;;;8.02;4.60;;;31.30;52.80;;;;;;4974686;28;20105;-76
2021/06/29 05:27:15;;;;;;;8.27;4.65;;;31.10;53.20;;;;;;4998339;28;20018;-75
2021/06/29 05:29:41;;;;;;;9.57;5.05;;;31.00;53.30;;;;;;5004661;28;20030;-74
2021/06/29 05:32:08;;;;;;;8.63;5.70;;;31.00;53.30;;;;;;4992783;28;20026;-73
2021/06/29 05:34:34;;;;;;;15.23;10.27;;;30.90;53.30;;;;;;4995600;28;20080;-72
2021/06/29 05:37:00;;;;;;;12.40;5.15;;;30.80;53.30;;;;;;5001878;28;20023;-72
2021/06/29 05:39:26;;;;;;;7.35;4.22;;;30.70;53.50;;;;;;4977445;28;20022;-75
2021/06/29 05:41:51;;;;;;;7.13;4.72;;;30.60;54.00;;;;;;4995131;28;20031;-70
2021/06/29 05:44:17;;;;;;;9.40;5.03;;;30.60;53.70;;;;;;4985758;28;20023;-70
2021/06/29 05:46:43;;;;;;;8.32;5.07;;;30.60;53.70;;;;;;4974529;28;20026;-70
2021/06/29 05:49:14;;;;;;;10.95;5.03;;;30.60;53.90;;;;;;4986722;28;20026;-66
2021/06/29 05:51:44;;;;;;;15.15;5.50;;;30.50;53.90;;;;;;4987446;28;20018;-68
2021/06/29 05:54:10;;;;;;;9.15;5.07;;;30.30;54.30;;;;;;4987999;28;20049;-71
2021/06/29 05:56:36;;;;;;;8.38;5.30;;;30.30;54.80;;;;;;4989984;28;20027;-70
2021/06/29 05:59:02;;;;;;;9.43;4.82;;;30.60;55.00;;;;;;4975031;28;20034;-68
2021/06/29 06:01:27;;;;;;;9.73;4.90;;;31.00;54.60;;;;;;4996347;28;20025;-67
2021/06/29 06:03:53;;;;;;;7.20;4.35;;;31.50;54.10;;;;;;4955349;28;20026;-73
2021/06/29 06:06:18;;;;;;;9.13;4.30;;;32.20;53.10;;;;;;4988032;28;20037;-72
2021/06/29 06:08:44;;;;;;;8.02;4.40;;;32.90;52.00;;;;;;4987822;28;20489;-69
2021/06/29 06:11:10;;;;;;;6.22;4.65;;;33.40;51.00;;;;;;4974573;28;20443;-70
2021/06/29 06:13:36;;;;;;;7.18;4.25;;;33.80;50.30;;;;;;4987959;28;20058;-68
2021/06/29 06:16:02;;;;;;;7.53;4.43;;;34.30;49.50;;;;;;4981922;28;20034;-74
2021/06/29 06:18:28;;;;;;;6.13;4.70;;;34.70;48.70;;;;;;5001174;28;20027;-67
2021/06/29 06:20:53;;;;;;;6.05;3.88;;;35.10;47.90;;;;;;5008691;28;20073;-70
2021/06/29 06:23:19;;;;;;;5.90;4.45;;;35.40;47.40;;;;;;4991720;28;20022;-71
2021/06/29 06:25:45;;;;;;;5.50;4.07;;;35.50;47.00;;;;;;4994783;28;20037;-74
2021/06/29 06:28:11;;;;;;;7.90;4.40;;;35.30;46.20;;;;;;4986225;28;20105;-74
2021/06/29 06:30:39;;;;;;;9.07;4.57;;;35.50;46.10;;;;;;4986638;28;20465;-69
2021/06/29 06:33:05;;;;;;;9.60;4.07;;;35.50;46.20;;;;;;4988856;28;20026;-70
2021/06/29 06:35:31;;;;;;;8.80;4.60;;;35.60;45.90;;;;;;4974321;28;20026;-70
2021/06/29 06:37:56;;;;;;;6.80;4.20;;;35.60;45.80;;;;;;4995983;28;20022;-67
2021/06/29 06:40:22;;;;;;;6.53;4.30;;;35.90;46.10;;;;;;4988322;28;20473;-70
2021/06/29 06:42:48;;;;;;;5.38;4.05;;;36.10;45.80;;;;;;4981233;28;20046;-75
2021/06/29 06:45:14;;;;;;;8.18;4.20;;;36.10;45.20;;;;;;4974707;28;20026;-74
2021/06/29 06:47:40;;;;;;;7.15;4.20;;;36.20;45.40;;;;;;4977876;28;20081;-74
2021/06/29 06:50:08;;;;;;;9.07;4.60;;;36.00;44.80;;;;;;4989682;28;20026;-75
2021/06/29 06:52:35;;;;;;;6.03;4.70;;;35.90;45.00;;;;;;4977440;28;20116;-74
2021/06/29 06:55:02;;;;;;;9.90;4.50;;;35.80;45.50;;;;;;4995197;28;20041;-84
2021/06/29 06:57:28;;;;;;;8.52;4.50;;;36.00;45.50;;;;;;4993549;28;20037;-80
2021/06/29 06:59:54;;;;;;;8.43;4.22;;;36.30;45.20;;;;;;4995330;28;20337;-74
2021/06/29 07:02:19;;;;;;;7.72;4.53;;;36.60;44.70;;;;;;4993307;28;20039;-77
2021/06/29 07:04:45;;;;;;;6.93;4.30;;;36.80;44.60;;;;;;4979365;28;20033;-75
2021/06/29 07:07:11;;;;;;;6.30;3.58;;;37.20;43.70;;;;;;4995406;28;20034;-74
2021/06/29 07:09:36;;;;;;;7.88;4.28;;;37.30;43.30;;;;;;4997731;28;20030;-72
2021/06/29 07:12:02;;;;;;;5.80;3.70;;;37.40;43.00;;;;;;4996444;28;20547;-73
2021/06/29 07:14:28;;;;;;;7.07;4.38;;;37.50;43.20;;;;;;4978660;28;20042;-71
2021/06/29 07:16:54;;;;;;;6.75;4.22;;;37.30;42.90;;;;;;4989342;28;20499;-72
2021/06/29 07:19:19;;;;;;;7.88;4.20;;;37.20;43.40;;;;;;4986950;28;20058;-72
2021/06/29 07:21:45;;;;;;;4.95;3.97;;;37.20;43.70;;;;;;4982255;28;20042;-73
2021/06/29 07:24:11;;;;;;;8.13;4.22;;;37.40;44.00;;;;;;4998322;28;20042;-72
2021/06/29 07:26:36;;;;;;;7.13;3.80;;;37.50;43.80;;;;;;4998116;28;20042;-73
2021/06/29 07:29:02;;;;;;;5.88;3.35;;;38.00;43.00;;;;;;4988132;28;20469;-73
2021/06/29 07:31:29;;;;;;;4.80;3.40;;;38.30;41.40;;;;;;4992607;28;20042;-73
2021/06/29 07:33:55;;;;;;;6.45;3.58;;;38.10;41.50;;;;;;4995846;28;20092;-71
2021/06/29 07:36:21;;;;;;;6.55;3.53;;;37.90;41.10;;;;;;4990617;28;20300;-72
2021/06/29 07:38:47;;;;;;;5.90;3.33;;;37.80;41.60;;;;;;4992110;28;20436;-73
2021/06/29 07:41:14;;;;;;;5.03;3.28;;;38.00;41.70;;;;;;4974604;28;20091;-71
2021/06/29 07:43:40;;;;;;;13.77;3.70;;;38.30;41.20;;;;;;4993838;28;20041;-73
2021/06/29 07:46:05;;;;;;;7.30;3.55;;;38.40;41.10;;;;;;4978273;28;20030;-72
2021/06/29 07:48:31;;;;;;;4.45;2.95;;;38.20;41.00;;;;;;4993073;28;20038;-73
2021/06/29 07:50:57;;;;;;;6.05;3.35;;;38.20;40.90;;;;;;4974600;28;20030;-74
2021/06/29 07:53:23;;;;;;;5.25;3.10;;;38.30;41.10;;;;;;4994112;28;20377;-74
2021/06/29 07:55:49;;;;;;;5.35;3.10;;;38.10;40.40;;;;;;4992534;28;20034;-75
2021/06/29 07:58:16;;;;;;;6.10;3.10;;;37.80;41.00;;;;;;4990065;28;20420;-72
2021/06/29 08:00:42;;;;;;;4.70;3.10;;;37.30;41.10;;;;;;4989477;28;20026;-72
2021/06/29 08:03:08;;;;;;;5.78;2.80;;;37.10;41.80;;;;;;4996625;28;20091;-72
2021/06/29 08:05:34;;;;;;;10.18;3.47;;;37.20;42.30;;;;;;4983824;28;20078;-73
2021/06/29 08:07:59;;;;;;;5.03;3.10;;;37.20;41.40;;;;;;4970768;28;20034;-74
2021/06/29 08:10:25;;;;;;;6.07;3.85;;;37.30;41.80;;;;;;4992949;28;20373;-72
2021/06/29 08:12:51;;;;;;;5.47;3.67;;;37.50;40.70;;;;;;4975297;28;20095;-73
2021/06/29 08:15:17;;;;;;;7.20;3.80;;;37.30;41.30;;;;;;4995964;28;20108;-73
2021/06/29 08:17:45;;;;;;;6.20;3.45;;;37.40;42.30;;;;;;4992251;28;20018;-73
2021/06/29 08:20:12;;;;;;;4.80;3.15;;;37.60;42.30;;;;;;4992224;28;20035;-74
2021/06/29 08:22:38;;;;;;;6.38;3.30;;;37.90;41.90;;;;;;4974695;28;20027;-75
2021/06/29 08:25:05;;;;;;;5.63;2.80;;;38.00;41.50;;;;;;4972075;28;20038;-75
2021/06/29 08:27:31;;;;;;;8.25;3.10;;;38.30;40.80;;;;;;4970630;28;20042;-74
2021/06/29 08:29:58;;;;;;;7.25;3.28;;;38.80;39.90;;;;;;4986535;28;20033;-71
2021/06/29 08:32:24;;;;;;;4.50;2.67;;;38.90;39.90;;;;;;4975065;28;20033;-71
2021/06/29 08:34:50;;;;;;;6.68;3.10;;;39.00;39.20;;;;;;4984748;28;20042;-71
2021/06/29 08:37:17;;;;;;;5.18;2.97;;;39.00;38.90;;;;;;4999053;28;20038;-73
2021/06/29 08:39:43;;;;;;;5.35;3.58;;;39.10;38.90;;;;;;4992998;28;20045;-71
2021/06/29 08:42:11;;;;;;;5.80;3.30;;;39.00;39.30;;;;;;4990363;28;20026;-74
2021/06/29 08:44:38;;;;;;;4.28;3.03;;;39.10;39.10;;;;;;4976359;28;20104;-79
2021/06/29 08:47:07;;;;;;;6.35;3.67;;;39.10;38.80;;;;;;4991466;28;20027;-71
2021/06/29 08:49:34;;;;;;;5.30;3.78;;;39.20;38.80;;;;;;4991592;28;20042;-69
2021/06/29 08:52:00;;;;;;;5.72;3.97;;;39.20;39.00;;;;;;4973016;28;20520;-70
2021/06/29 08:54:26;;;;;;;5.47;3.67;;;38.90;39.00;;;;;;4984818;28;20054;-72
2021/06/29 08:56:52;;;;;;;8.77;3.95;;;38.40;39.40;;;;;;4976479;28;20113;-71
2021/06/29 08:59:17;;;;;;;8.27;4.00;;;37.40;39.60;;;;;;4992940;28;20116;-71
2021/06/29 09:01:43;;;;;;;5.10;3.85;;;36.30;40.60;;;;;;4979469;28;20397;-71
2021/06/29 09:04:09;;;;;;;14.07;4.03;;;35.20;41.60;;;;;;4977830;28;20400;-72
2021/06/29 09:06:40;;;;;;;5.57;3.13;;;34.30;42.70;;;;;;4990485;28;20026;-69
2021/06/29 09:09:27;;;;;;;4.20;2.63;;;34.00;43.90;;;;;;4974761;28;20034;-68
2021/06/29 09:11:56;;;;;;;6.28;2.90;;;34.20;43.90;;;;;;4989389;28;20420;-69
2021/06/29 09:14:29;;;;;;;4.25;2.38;;;34.70;43.90;;;;;;4986961;28;20142;-66
2021/06/29 09:17:21;;;;;;;6.23;2.50;;;35.40;42.50;;;;;;4994363;28;20037;-67
2021/06/29 09:19:47;;;;;;;5.22;2.53;;;36.00;42.30;;;;;;4990287;28;20050;-70
2021/06/29 09:22:30;;;;;;;2.90;2.30;;;36.50;41.90;;;;;;4992202;28;20089;-69
2021/06/29 09:24:57;;;;;;;3.53;2.10;;;36.80;41.40;;;;;;4973960;28;20045;-69
2021/06/29 09:27:46;;;;;;;3.55;2.00;;;36.90;40.30;;;;;;4976340;28;20034;-68
2021/06/29 09:30:33;;;;;;;6.05;2.30;;;37.30;39.70;;;;;;4969106;28;20030;-65
2021/06/29 09:33:00;;;;;;;5.18;2.13;;;38.00;38.50;;;;;;4971903;28;20527;-65
2021/06/29 09:35:26;;;;;;;3.13;2.05;;;38.40;38.30;;;;;;4992736;28;20026;-71
2021/06/29 09:37:51;;;;;;;3.08;1.83;;;38.70;37.90;;;;;;4992133;28;20445;-72
2021/06/29 09:40:19;;;;;;;3.03;1.95;;;38.60;37.60;;;;;;4977180;28;20023;-77
2021/06/29 09:42:44;;;;;;;2.97;1.65;;;38.60;37.00;;;;;;4988964;28;20424;-73
2021/06/29 09:45:41;;;;;;;4.20;2.00;;;38.30;36.90;;;;;;5002086;28;20034;-72
2021/06/29 09:48:10;;;;;;;3.03;2.10;;;38.00;37.40;;;;;;4986600;28;20054;-74
2021/06/29 09:50:51;;;;;;;3.47;2.30;;;37.90;37.90;;;;;;5006294;28;20029;-68
2021/06/29 09:53:18;;;;;;;2.47;1.90;;;37.90;37.60;;;;;;4992283;28;20033;-72
2021/06/29 09:55:50;;;;;;;3.28;1.85;;;37.60;37.40;;;;;;4984060;28;20077;-72
2021/06/29 09:58:17;;;;;;;9.38;2.42;;;37.10;37.00;;;;;;5008418;28;20105;-71
2021/06/29 10:00:50;;;;;;;2.92;2.30;;;36.90;37.50;;;;;;5006152;28;20029;-71
2021/06/29 10:03:32;;;;;;;2.70;2.33;;;36.40;37.90;;;;;;4991868;28;20413;-73
2021/06/29 10:06:01;;;;;;;3.47;2.38;;;36.20;38.60;;;;;;4986052;28;20030;-72
2021/06/29 10:08:31;;;;;;;3.22;2.65;;;35.80;39.60;;;;;;4995691;28;20029;-74
2021/06/29 10:11:13;;;;;;;5.10;2.28;;;35.80;40.30;;;;;;4998855;28;20435;-70
2021/06/29 10:13:44;;;;;;;2.83;2.30;;;36.10;40.20;;;;;;5015969;28;20053;-71
2021/06/29 10:16:12;;;;;;;3.78;2.40;;;36.20;40.00;;;;;;5016057;28;20026;-70
2021/06/29 10:18:43;;;;;;;4.13;2.35;;;36.40;40.00;;;;;;4979122;28;20041;-74
2021/06/29 10:21:21;;;;;;;4.35;2.10;;;36.60;38.90;;;;;;4970625;28;20026;-70
2021/06/29 10:23:49;;;;;;;3.22;2.28;;;36.90;39.70;;;;;;4989748;28;20121;-76
2021/06/29 10:26:15;;;;;;;4.78;2.53;;;37.30;39.20;;;;;;5015911;28;20030;-73
2021/06/29 10:28:44;;;;;;;5.25;2.85;;;37.30;38.90;;;;;;5012920;28;20085;-71
2021/06/29 10:31:16;;;;;;;3.53;2.30;;;36.80;38.80;;;;;;5001314;28;20022;-72
2021/06/29 10:33:43;;;;;;;2.75;2.38;;;36.00;39.40;;;;;;4994703;28;20030;-72
2021/06/29 10:36:09;;;;;;;3.38;2.60;;;35.20;40.00;;;;;;4990361;28;20483;-71
2021/06/29 10:38:35;;;;;;;3.95;2.60;;;34.80;41.10;;;;;;5005463;28;20053;-76
2021/06/29 10:41:02;;;;;;;3.92;2.47;;;35.00;41.00;;;;;;5004981;28;20057;-73
2021/06/29 10:43:28;;;;;;;3.28;2.72;;;35.50;41.20;;;;;;4988788;28;20033;-68
2021/06/29 10:45:54;;;;;;;3.20;2.50;;;35.80;41.10;;;;;;5007182;28;20027;-71
2021/06/29 10:48:27;;;;;;;4.13;2.53;;;35.70;40.80;;;;;;5000086;28;20026;-72
2021/06/29 10:50:55;;;;;;;4.90;3.00;;;35.20;40.70;;;;;;4983428;28;20038;-72
2021/06/29 10:53:48;;;;;;;4.40;2.90;;;34.60;41.50;;;;;;4989663;28;20117;-70
2021/06/29 10:56:19;;;;;;;3.97;3.13;;;33.90;42.40;;;;;;4990240;28;20041;-71
2021/06/29 10:58:50;;;;;;;4.30;3.25;;;33.10;43.40;;;;;;4988997;28;20026;-72
2021/06/29 11:01:28;;;;;;;4.57;3.22;;;32.30;44.60;;;;;;4983562;28;20478;-72
2021/06/29 11:03:56;;;;;;;4.68;3.00;;;31.80;45.60;;;;;;5011283;28;20041;-72
2021/06/29 11:06:47;;;;;;;4.40;3.40;;;31.30;46.80;;;;;;5009570;28;20030;-73
2021/06/29 11:09:15;;;;;;;4.10;3.40;;;30.80;48.40;;;;;;4976852;28;20435;-74
2021/06/29 11:11:41;;;;;;;6.53;4.00;;;30.50;48.70;;;;;;5014869;28;20380;-73
2021/06/29 11:14:27;;;;;;;8.48;3.90;;;30.20;50.20;;;;;;5015137;28;20057;-73
2021/06/29 11:16:54;;;;;;;5.40;3.72;;;29.80;50.90;;;;;;5004477;28;20066;-74
2021/06/29 11:19:21;;;;;;;9.80;3.40;;;29.20;51.40;;;;;;4997594;28;20030;-74
2021/06/29 11:21:47;;;;;;;10.18;4.03;;;28.50;52.30;;;;;;4997289;28;20030;-75
2021/06/29 11:24:36;;;;;;;5.65;2.42;;;27.90;52.50;;;;;;4996916;28;20492;-74
2021/06/29 11:27:02;;;;;;;11.25;3.00;;;27.40;51.70;;;;;;4997364;28;20030;-73
2021/06/29 11:29:44;;;;;;;12.10;3.30;;;26.80;53.30;;;;;;4997384;28;20025;-74
2021/06/29 11:32:31;;;;;;;11.10;3.42;;;26.30;56.60;;;;;;5014446;28;20022;-73
2021/06/29 11:35:38;;;;;;;8.80;3.17;;;26.00;58.20;;;;;;4976768;28;20023;-73
2021/06/29 11:38:09;;;;;;;7.22;3.47;;;25.80;58.90;;;;;;4991463;28;20026;-75
2021/06/29 11:40:36;;;;;;;5.30;2.45;;;25.80;60.20;;;;;;4997357;28;20022;-74
2021/06/29 11:43:12;;;;;;;7.82;2.40;;;25.80;58.90;;;;;;5014969;28;20125;-74
2021/06/29 11:45:39;;;;;;;8.35;2.60;;;25.90;59.40;;;;;;5017128;28;20423;-74
2021/06/29 11:48:05;;;;;;;6.05;2.65;;;25.90;59.00;;;;;;4991337;28;20034;-75
2021/06/29 11:50:42;;;;;;;6.68;2.40;;;26.00;60.40;;;;;;4998168;28;20061;-73
2021/06/29 11:53:24;;;;;;;7.78;2.70;;;26.10;59.60;;;;;;4989892;28;20105;-73
2021/06/29 11:55:50;;;;;;;5.85;2.72;;;26.20;58.60;;;;;;4997028;28;20472;-74
2021/06/29 11:58:16;;;;;;;5.35;2.55;;;26.30;59.00;;;;;;4990621;28;20026;-72
2021/06/29 12:00:41;;;;;;;5.07;2.50;;;26.40;59.60;;;;;;5010591;28;20030;-73
2021/06/29 12:03:20;;;;;;;3.78;2.38;;;26.40;59.80;;;;;;5014902;28;20038;-73
2021/06/29 12:05:46;;;;;;;6.95;2.90;;;26.50;59.50;;;;;;4992835;28;20046;-75
2021/06/29 12:08:14;;;;;;;5.82;2.65;;;26.60;59.40;;;;;;4981786;28;20018;-72
2021/06/29 12:10:49;;;;;;;6.85;3.15;;;26.60;59.70;;;;;;4998542;28;20026;-73
2021/06/29 12:13:18;;;;;;;6.70;3.90;;;26.70;61.40;;;;;;4996476;28;20085;-71
2021/06/29 12:15:52;;;;;;;7.10;3.47;;;26.70;61.80;;;;;;4996626;28;20017;-74
2021/06/29 12:18:24;;;;;;;5.33;3.83;;;26.70;62.40;;;;;;5013510;28;20025;-76
2021/06/29 12:20:56;;;;;;;6.63;3.50;;;26.70;62.90;;;;;;4971471;28;20272;-74
2021/06/29 12:23:26;;;;;;;5.93;3.30;;;26.70;63.10;;;;;;4996565;28;20080;-73
2021/06/29 12:26:00;;;;;;;9.82;4.03;;;26.60;62.80;;;;;;4996475;28;20030;-79
2021/06/29 12:28:31;;;;;;;5.30;3.70;;;26.70;63.00;;;;;;4995908;28;20468;-73
2021/06/29 12:31:01;;;;;;;6.70;3.75;;;26.80;62.40;;;;;;4996411;28;20026;-76
2021/06/29 12:33:35;;;;;;;7.72;3.65;;;26.80;62.00;;;;;;4996202;28;20030;-77
2021/06/29 12:36:13;;;;;;;8.63;4.10;;;26.90;61.30;;;;;;4996398;28;20134;-73
2021/06/29 12:38:45;;;;;;;6.93;3.97;;;27.00;60.70;;;;;;5013752;28;20034;-73
2021/06/29 12:41:21;;;;;;;8.68;4.07;;;27.10;60.70;;;;;;5013713;28;20041;-74
2021/06/29 12:43:54;;;;;;;7.15;4.18;;;27.20;61.10;;;;;;5013566;28;20033;-71
2021/06/29 12:46:24;;;;;;;8.80;4.07;;;27.40;61.00;;;;;;4970471;28;20022;-73
2021/06/29 12:49:08;;;;;;;7.80;4.13;;;27.60;61.20;;;;;;5013765;28;20026;-75
2021/06/29 12:51:37;;;;;;;8.05;4.35;;;27.70;60.60;;;;;;4974202;28;20026;-74